createdAt,value
2018-08-27T00:08:57.619Z,3.07
2018-08-27T00:11:26.199Z,2.03
2018-08-27T00:13:54.643Z,4.07
2018-08-27T00:16:23.115Z,3.63
2018-08-27T00:18:51.587Z,2.30
2018-08-27T00:21:20.062Z,3.43
2018-08-27T00:23:48.523Z,4.47
2018-08-27T00:26:16.970Z,3.00
2018-08-27T00:28:45.399Z,2.50
2018-08-27T00:31:13.959Z,5.03
2018-08-27T00:33:42.408Z,4.87
2018-08-27T00:36:10.862Z,2.20
2018-08-27T00:38:39.283Z,3.63
2018-08-27T00:41:07.734Z,3.73
2018-08-27T00:43:36.167Z,2.80
2018-08-27T00:46:04.615Z,3.60
2018-08-27T00:48:33.069Z,3.23
2018-08-27T00:51:01.529Z,3.27
2018-08-27T00:53:29.996Z,3.70
2018-08-27T00:55:58.539Z,2.10
2018-08-27T00:58:26.955Z,2.33
2018-08-27T01:00:55.391Z,3.43
2018-08-27T01:03:23.858Z,3.33
2018-08-27T01:05:52.311Z,5.83
2018-08-27T01:08:20.923Z,1.77
2018-08-27T01:10:49.375Z,2.53
2018-08-27T01:13:17.833Z,7.03
2018-08-27T01:15:46.295Z,4.67
2018-08-27T01:18:14.842Z,3.83
2018-08-27T01:20:43.381Z,6.67
2018-08-27T01:23:11.906Z,2.33
2018-08-27T01:25:40.392Z,2.33
2018-08-27T01:28:08.828Z,6.53
2018-08-27T01:30:37.359Z,1.73
2018-08-27T01:33:05.905Z,3.13
2018-08-27T01:35:34.429Z,2.37
2018-08-27T01:38:02.992Z,3.67
2018-08-27T01:40:31.551Z,3.00
2018-08-27T01:43:00.037Z,1.43
2018-08-27T01:45:28.831Z,3.30
2018-08-27T01:47:57.354Z,2.00
2018-08-27T01:50:25.904Z,1.73
2018-08-27T01:52:54.459Z,2.60
2018-08-27T01:55:22.986Z,2.77
2018-08-27T01:57:51.557Z,3.37
2018-08-27T02:00:20.062Z,2.10
2018-08-27T02:02:48.631Z,2.77
2018-08-27T02:05:17.221Z,2.23
2018-08-27T02:07:45.679Z,2.07
2018-08-27T02:10:15.051Z,2.37
2018-08-27T02:12:43.576Z,2.23
2018-08-27T02:15:12.148Z,3.20
2018-08-27T02:17:40.643Z,1.90
2018-08-27T02:20:09.220Z,2.70
2018-08-27T02:22:37.699Z,2.07
2018-08-27T02:25:06.743Z,2.20
2018-08-27T02:27:35.263Z,3.53
2018-08-27T02:30:03.967Z,1.90
2018-08-27T02:32:32.554Z,2.17
2018-08-27T02:35:01.205Z,5.97
2018-08-27T02:37:29.698Z,3.73
2018-08-27T02:39:58.220Z,3.20
2018-08-27T02:42:26.768Z,2.97
2018-08-27T02:44:55.243Z,2.77
2018-08-27T02:47:24.005Z,2.63
2018-08-27T02:49:52.499Z,3.63
2018-08-27T02:52:20.993Z,3.93
2018-08-27T02:54:51.136Z,1.93
2018-08-27T02:57:19.687Z,2.93
2018-08-27T02:59:48.180Z,1.70
2018-08-27T03:02:16.752Z,3.33
2018-08-27T03:04:50.921Z,2.73
2018-08-27T03:07:19.493Z,4.47
2018-08-27T03:09:48.049Z,2.77
2018-08-27T03:12:16.640Z,2.40
2018-08-27T03:14:45.117Z,2.30
2018-08-27T03:17:16.777Z,3.23
2018-08-27T03:19:45.286Z,2.13
2018-08-27T03:22:13.872Z,2.77
2018-08-27T03:24:42.404Z,3.67
2018-08-27T03:27:10.876Z,1.97
2018-08-27T03:29:39.356Z,2.73
2018-08-27T03:32:07.864Z,3.37
2018-08-27T03:34:36.318Z,3.27
2018-08-27T03:37:05.034Z,2.13
2018-08-27T03:39:33.511Z,3.60
2018-08-27T03:42:02.257Z,2.40
2018-08-27T03:44:30.868Z,4.00
2018-08-27T03:46:59.334Z,2.70
2018-08-27T03:49:27.843Z,2.70
2018-08-27T03:51:56.549Z,3.70
2018-08-27T03:54:25.114Z,3.40
2018-08-27T03:56:53.708Z,3.33
2018-08-27T03:59:22.258Z,2.30
2018-08-27T04:01:50.773Z,2.87
2018-08-27T04:04:19.299Z,3.43
2018-08-27T04:06:47.841Z,2.13
2018-08-27T04:09:16.396Z,2.57
2018-08-27T04:11:44.885Z,3.23
2018-08-27T04:14:13.460Z,2.37
2018-08-27T04:16:41.931Z,3.13
2018-08-27T04:19:10.905Z,2.50
2018-08-27T04:21:39.428Z,3.90
2018-08-27T04:24:07.980Z,3.47
2018-08-27T04:26:36.518Z,2.07
2018-08-27T04:29:05.130Z,3.87
2018-08-27T04:31:33.680Z,4.87
2018-08-27T04:34:02.281Z,3.27
2018-08-27T04:36:30.807Z,2.93
2018-08-27T04:38:59.275Z,3.70
2018-08-27T04:41:27.990Z,4.00
2018-08-27T04:43:57.464Z,3.17
2018-08-27T04:46:25.971Z,3.10
2018-08-27T04:48:54.462Z,3.87
2018-08-27T04:51:23.008Z,2.30
2018-08-27T04:53:51.517Z,4.27
2018-08-27T04:56:20.063Z,3.13
2018-08-27T04:58:49.385Z,3.67
2018-08-27T05:01:17.870Z,3.20
2018-08-27T05:03:46.465Z,2.03
2018-08-27T05:06:15.076Z,9.03
2018-08-27T05:08:43.637Z,3.50
2018-08-27T05:11:12.185Z,4.00
2018-08-27T05:13:40.705Z,2.80
2018-08-27T05:16:09.261Z,2.47
2018-08-27T05:18:37.741Z,2.47
2018-08-27T05:21:06.230Z,3.17
2018-08-27T05:23:34.705Z,4.00
2018-08-27T05:26:03.179Z,4.90
2018-08-27T05:28:31.678Z,4.27
2018-08-27T05:31:00.294Z,2.17
2018-08-27T05:33:28.852Z,2.57
2018-08-27T05:35:57.415Z,4.83
2018-08-27T05:38:25.956Z,6.97
2018-08-27T05:40:54.483Z,5.53
2018-08-27T05:43:22.958Z,3.90
2018-08-27T05:45:51.452Z,4.30
2018-08-27T05:48:20.041Z,10.33
2018-08-27T05:50:48.621Z,3.13
2018-08-27T05:53:17.273Z,5.30
2018-08-27T05:55:45.774Z,3.20
2018-08-27T05:58:14.269Z,10.63
2018-08-27T06:00:42.836Z,3.73
2018-08-27T06:03:11.325Z,5.60
2018-08-27T06:05:39.939Z,11.00
2018-08-27T06:08:08.497Z,6.83
2018-08-27T06:10:37.101Z,4.07
2018-08-27T06:13:06.057Z,6.83
2018-08-27T06:15:34.577Z,3.90
2018-08-27T06:18:03.256Z,4.93
2018-08-27T06:20:31.856Z,4.07
2018-08-27T06:23:00.390Z,13.40
2018-08-27T06:25:28.941Z,11.30
2018-08-27T06:27:58.185Z,18.17
2018-08-27T06:30:26.805Z,16.13
2018-08-27T06:32:55.336Z,19.73
2018-08-27T06:35:23.933Z,18.43
2018-08-27T06:37:52.419Z,23.40
2018-08-27T06:40:20.901Z,23.53
2018-08-27T06:42:49.817Z,25.07
2018-08-27T06:45:18.429Z,6.83
2018-08-27T06:47:46.954Z,13.77
2018-08-27T06:50:16.303Z,8.73
2018-08-27T06:52:44.912Z,28.13
2018-08-27T06:55:13.424Z,12.27
2018-08-27T06:57:41.990Z,9.97
2018-08-27T07:00:11.034Z,21.80
2018-08-27T07:02:39.572Z,11.90
2018-08-27T07:05:08.131Z,7.30
2018-08-27T07:07:36.711Z,11.07
2018-08-27T07:10:05.634Z,16.93
2018-08-27T07:12:34.107Z,5.67
2018-08-27T07:15:02.587Z,8.00
2018-08-27T07:17:31.052Z,4.67
2018-08-27T07:19:59.528Z,4.67
2018-08-27T07:22:28.991Z,8.03
2018-08-27T07:24:57.544Z,7.10
2018-08-27T07:27:26.046Z,7.83
2018-08-27T07:29:54.444Z,5.13
2018-08-27T07:32:22.918Z,3.93
2018-08-27T07:34:51.395Z,5.00
2018-08-27T07:37:19.861Z,6.50
2018-08-27T07:39:49.852Z,6.00
2018-08-27T07:42:18.277Z,8.07
2018-08-27T07:44:47.751Z,7.33
2018-08-27T07:47:16.202Z,6.03
2018-08-27T07:49:44.674Z,5.03
2018-08-27T07:52:13.196Z,8.67
2018-08-27T07:54:41.656Z,4.23
2018-08-27T07:57:10.128Z,5.63
2018-08-27T07:59:38.661Z,6.17
2018-08-27T08:02:07.149Z,4.67
2018-08-27T08:04:35.720Z,4.73
2018-08-27T08:07:04.198Z,5.10
2018-08-27T08:09:32.636Z,3.33
2018-08-27T08:12:01.293Z,4.40
2018-08-27T08:14:29.761Z,6.77
2018-08-27T08:16:58.234Z,5.57
2018-08-27T08:19:26.714Z,7.27
2018-08-27T08:21:55.216Z,4.30
2018-08-27T08:24:23.682Z,6.97
2018-08-27T08:26:52.164Z,8.10
2018-08-27T08:29:20.645Z,10.17
2018-08-27T08:31:49.132Z,11.63
2018-08-27T08:34:17.591Z,3.53
2018-08-27T08:36:46.148Z,4.60
2018-08-27T08:39:14.636Z,5.67
2018-08-27T08:41:43.096Z,3.23
2018-08-27T08:44:11.562Z,7.23
2018-08-27T08:46:40.164Z,3.37
2018-08-27T08:49:08.631Z,5.93
2018-08-27T08:51:37.119Z,4.67
2018-08-27T08:54:05.719Z,4.07
2018-08-27T08:56:34.194Z,3.70
2018-08-27T08:59:02.632Z,3.90
2018-08-27T09:01:31.118Z,5.70
2018-08-27T09:03:59.555Z,5.90
2018-08-27T09:06:28.089Z,7.77
2018-08-27T09:08:56.593Z,4.23
2018-08-27T09:11:25.033Z,3.20
2018-08-27T09:13:54.107Z,11.93
2018-08-27T09:16:22.573Z,3.87
2018-08-27T09:18:52.593Z,9.63
2018-08-27T09:21:21.154Z,7.97
2018-08-27T09:23:49.676Z,9.77
2018-08-27T09:26:18.097Z,9.40
2018-08-27T09:28:46.593Z,6.77
2018-08-27T09:31:15.108Z,7.80
2018-08-27T09:33:43.567Z,7.17
2018-08-27T09:36:12.070Z,7.60
2018-08-27T09:38:40.549Z,7.33
2018-08-27T09:41:09.029Z,5.97
2018-08-27T09:43:37.582Z,6.37
2018-08-27T09:46:06.037Z,7.53
2018-08-27T09:48:34.609Z,5.30
2018-08-27T09:51:03.282Z,8.03
2018-08-27T09:53:31.732Z,9.07
2018-08-27T09:56:00.256Z,5.00
2018-08-27T09:58:28.833Z,7.10
2018-08-27T10:01:02.767Z,5.27
2018-08-27T10:03:31.210Z,8.63
2018-08-27T10:05:59.673Z,9.50
2018-08-27T10:08:28.149Z,6.47
2018-08-27T10:10:56.651Z,14.47
2018-08-27T10:13:25.204Z,9.40
2018-08-27T10:15:53.790Z,6.63
2018-08-27T10:18:22.458Z,11.27
2018-08-27T10:20:50.997Z,4.50
2018-08-27T10:23:19.544Z,6.47
2018-08-27T10:25:48.120Z,4.00
2018-08-27T10:28:16.852Z,4.63
2018-08-27T10:30:45.313Z,4.43
2018-08-27T10:33:13.785Z,5.60
2018-08-27T10:35:42.251Z,8.37
2018-08-27T10:38:10.729Z,4.93
2018-08-27T10:40:39.225Z,5.03
2018-08-27T10:43:07.814Z,7.40
2018-08-27T10:45:36.277Z,3.57
2018-08-27T10:48:04.907Z,4.70
2018-08-27T10:50:33.444Z,5.10
2018-08-27T10:53:01.864Z,4.23
2018-08-27T10:55:30.359Z,72.90
2018-08-27T10:57:58.859Z,73.60
2018-08-27T11:00:27.346Z,46.80
2018-08-27T11:02:55.920Z,18.57
2018-08-27T11:05:24.403Z,13.73
2018-08-27T11:07:53.608Z,13.97
2018-08-27T11:10:22.320Z,16.70
2018-08-27T11:12:50.824Z,11.20
2018-08-27T11:15:19.741Z,9.13
2018-08-27T11:17:49.075Z,9.63
2018-08-27T11:20:17.660Z,29.77
2018-08-27T11:22:46.136Z,36.50
2018-08-27T11:25:14.618Z,18.77
2018-08-27T11:27:43.136Z,14.10
2018-08-27T11:30:11.596Z,14.77
2018-08-27T11:32:40.103Z,11.13
2018-08-27T11:35:09.593Z,8.80
2018-08-27T11:37:38.732Z,7.33
2018-08-27T11:40:09.975Z,9.50
2018-08-27T11:42:40.345Z,8.33
2018-08-27T11:45:10.129Z,9.57
2018-08-27T11:47:38.689Z,8.17
2018-08-27T11:50:07.789Z,4.77
2018-08-27T11:52:36.315Z,6.97
2018-08-27T11:55:05.248Z,6.20
2018-08-27T11:57:33.707Z,9.10
2018-08-27T12:00:03.445Z,5.07
2018-08-27T12:02:32.163Z,8.60
2018-08-27T12:05:00.616Z,6.97
2018-08-27T12:07:29.093Z,4.00
2018-08-27T12:09:57.579Z,3.87
2018-08-27T12:12:26.093Z,4.63
2018-08-27T12:14:54.579Z,6.20
2018-08-27T12:17:23.078Z,4.03
2018-08-27T12:19:51.564Z,4.30
2018-08-27T12:22:20.049Z,4.97
2018-08-27T12:24:48.602Z,13.03
2018-08-27T12:27:17.103Z,5.33
2018-08-27T12:29:45.597Z,36.03
2018-08-27T12:32:14.070Z,19.00
2018-08-27T12:34:42.548Z,47.00
2018-08-27T12:37:11.540Z,14.43
2018-08-27T12:39:40.029Z,18.67
2018-08-27T12:42:08.813Z,24.50
2018-08-27T12:44:37.358Z,29.10
2018-08-27T12:47:06.013Z,18.93
2018-08-27T12:49:34.473Z,16.50
2018-08-27T12:52:02.995Z,9.47
2018-08-27T12:54:31.526Z,9.37
2018-08-27T12:57:00.715Z,6.87
2018-08-27T12:59:30.264Z,7.40
2018-08-27T13:01:58.774Z,7.80
2018-08-27T13:04:27.459Z,10.93
2018-08-27T13:06:55.920Z,6.47
2018-08-27T13:09:26.058Z,5.97
2018-08-27T13:11:54.546Z,5.40
2018-08-27T13:14:23.077Z,4.80
2018-08-27T13:16:51.546Z,9.60
2018-08-27T13:19:20.104Z,4.63
2018-08-27T13:21:48.562Z,7.67
2018-08-27T13:24:17.061Z,5.77
2018-08-27T13:26:45.892Z,4.73
2018-08-27T13:29:14.379Z,5.90
2018-08-27T13:31:43.210Z,3.17
2018-08-27T13:34:11.632Z,7.30
2018-08-27T13:36:40.136Z,5.93
2018-08-27T13:39:08.979Z,4.70
2018-08-27T13:41:37.491Z,8.10
2018-08-27T13:44:06.019Z,6.73
2018-08-27T13:46:34.701Z,5.37
2018-08-27T13:49:03.297Z,7.27
2018-08-27T13:51:37.744Z,3.03
2018-08-27T13:54:06.306Z,5.03
2018-08-27T13:56:35.029Z,2.63
2018-08-27T13:59:03.693Z,3.33
2018-08-27T14:01:32.225Z,2.90
2018-08-27T14:04:00.742Z,5.10
2018-08-27T14:06:29.302Z,3.67
2018-08-27T14:08:57.797Z,3.60
2018-08-27T14:11:26.271Z,3.43
2018-08-27T14:13:54.786Z,6.60
2018-08-27T14:16:23.449Z,2.40
2018-08-27T14:18:52.063Z,4.53
2018-08-27T14:21:20.673Z,3.00
2018-08-27T14:23:49.393Z,2.50
2018-08-27T14:26:18.305Z,4.30
2018-08-27T14:28:46.734Z,3.00
2018-08-27T14:31:15.418Z,8.93
2018-08-27T14:33:43.944Z,41.43
2018-08-27T14:36:12.622Z,18.60
2018-08-27T14:38:41.325Z,14.27
2018-08-27T14:41:09.974Z,7.80
2018-08-27T14:43:38.478Z,19.23
2018-08-27T14:46:07.253Z,42.30
2018-08-27T14:48:36.650Z,27.03
2018-08-27T14:51:05.586Z,22.90
2018-08-27T14:53:35.107Z,19.67
2018-08-27T14:56:04.668Z,13.93
2018-08-27T14:58:33.209Z,11.60
2018-08-27T15:01:06.843Z,8.13
2018-08-27T15:03:35.312Z,5.03
2018-08-27T15:06:03.836Z,9.03
2018-08-27T15:08:32.404Z,12.83
2018-08-27T15:11:00.933Z,12.73
2018-08-27T15:13:29.408Z,12.53
2018-08-27T15:15:57.956Z,12.03
2018-08-27T15:18:26.421Z,11.37
2018-08-27T15:20:54.993Z,11.03
2018-08-27T15:23:23.969Z,13.63
2018-08-27T15:25:52.423Z,12.37
2018-08-27T15:28:20.876Z,7.73
2018-08-27T15:30:49.385Z,11.50
2018-08-27T15:33:17.942Z,5.33
2018-08-27T15:35:46.424Z,4.77
2018-08-27T15:38:14.928Z,7.17
2018-08-27T15:40:43.383Z,5.50
2018-08-27T15:43:11.848Z,4.53
2018-08-27T15:45:45.772Z,4.23
2018-08-27T15:48:14.825Z,3.60
2018-08-27T15:50:43.406Z,4.50
2018-08-27T15:53:11.917Z,4.17
2018-08-27T15:55:42.416Z,4.07
2018-08-27T15:58:12.111Z,3.93
2018-08-27T16:00:40.583Z,2.67
2018-08-27T16:03:09.087Z,7.00
2018-08-27T16:05:37.624Z,4.10
2018-08-27T16:08:06.010Z,6.73
2018-08-27T16:10:34.460Z,8.30
2018-08-27T16:13:02.987Z,6.83
2018-08-27T16:15:32.061Z,8.23
2018-08-27T16:18:00.597Z,7.63
2018-08-27T16:20:29.205Z,6.50
2018-08-27T16:22:57.751Z,4.97
2018-08-27T16:25:26.890Z,5.53
2018-08-27T16:27:55.444Z,5.43
2018-08-27T16:30:23.897Z,6.60
2018-08-27T16:32:52.388Z,5.13
2018-08-27T16:35:20.877Z,3.30
2018-08-27T16:37:49.361Z,4.90
2018-08-27T16:40:17.844Z,5.43
2018-08-27T16:42:47.244Z,5.90
2018-08-27T16:45:15.724Z,4.70
2018-08-27T16:47:44.183Z,15.87
2018-08-27T16:50:12.650Z,8.20
2018-08-27T16:52:41.171Z,11.07
2018-08-27T16:55:09.657Z,21.60
2018-08-27T16:57:38.179Z,6.63
2018-08-27T17:00:08.157Z,9.47
2018-08-27T17:02:36.632Z,8.50
2018-08-27T17:05:05.105Z,7.53
2018-08-27T17:07:33.612Z,6.87
2018-08-27T17:10:02.171Z,7.00
2018-08-27T17:12:30.539Z,17.50
2018-08-27T17:14:59.019Z,29.03
2018-08-27T17:17:27.524Z,30.87
2018-08-27T17:19:56.032Z,36.80
2018-08-27T17:22:24.734Z,18.07
2018-08-27T17:24:53.409Z,26.80
2018-08-27T17:27:21.899Z,21.53
2018-08-27T17:29:50.370Z,19.53
2018-08-27T17:32:18.941Z,13.23
2018-08-27T17:34:47.717Z,12.70
2018-08-27T17:37:16.333Z,9.37
2018-08-27T17:39:44.916Z,10.83
2018-08-27T17:42:13.545Z,13.60
2018-08-27T17:44:42.018Z,11.07
2018-08-27T17:47:10.708Z,8.30
2018-08-27T17:49:39.284Z,9.00
2018-08-27T17:52:07.765Z,5.93
2018-08-27T17:54:36.247Z,11.00
2018-08-27T17:57:04.755Z,7.23
2018-08-27T17:59:33.239Z,6.63
2018-08-27T18:02:01.724Z,7.53
2018-08-27T18:04:30.237Z,6.73
2018-08-27T18:06:58.746Z,6.17
2018-08-27T18:09:28.165Z,4.87
2018-08-27T18:11:56.781Z,5.10
2018-08-27T18:14:25.361Z,5.37
2018-08-27T18:16:53.885Z,6.00
2018-08-27T18:19:22.397Z,5.97
2018-08-27T18:21:50.868Z,4.80
2018-08-27T18:24:19.392Z,8.83
2018-08-27T18:26:48.132Z,8.93
2018-08-27T18:29:16.581Z,7.73
2018-08-27T18:31:45.084Z,7.77
2018-08-27T18:34:13.549Z,7.17
2018-08-27T18:36:42.040Z,5.53
2018-08-27T18:39:10.574Z,5.87
2018-08-27T18:41:39.009Z,5.70
2018-08-27T18:44:07.745Z,9.17
2018-08-27T18:46:36.233Z,11.93
2018-08-27T18:49:04.785Z,8.27
2018-08-27T18:51:33.282Z,9.20
2018-08-27T18:54:01.754Z,8.33
2018-08-27T18:56:30.597Z,13.40
2018-08-27T18:58:59.192Z,69.87
2018-08-27T19:01:33.033Z,65.03
2018-08-27T19:04:01.742Z,26.10
2018-08-27T19:06:30.321Z,17.73
2018-08-27T19:08:58.905Z,8.30
2018-08-27T19:11:28.136Z,8.00
2018-08-27T19:13:56.646Z,9.23
2018-08-27T19:16:25.100Z,9.03
2018-08-27T19:18:53.656Z,6.43
2018-08-27T19:21:22.322Z,4.93
2018-08-27T19:23:50.876Z,5.57
2018-08-27T19:26:20.155Z,6.77
2018-08-27T19:28:48.806Z,31.37
2018-08-27T19:31:17.294Z,77.90
2018-08-27T19:33:46.075Z,60.93
2018-08-27T19:36:14.780Z,93.90
2018-08-27T19:38:43.164Z,56.30
2018-08-27T19:41:11.701Z,51.87
2018-08-27T19:43:40.273Z,25.60
2018-08-27T19:46:08.879Z,18.30
2018-08-27T19:48:37.353Z,6.60
2018-08-27T19:51:05.852Z,8.37
2018-08-27T19:53:34.386Z,8.47
2018-08-27T19:56:03.249Z,5.77
2018-08-27T19:58:32.089Z,4.37
2018-08-27T20:01:00.592Z,3.80
2018-08-27T20:03:29.241Z,3.10
2018-08-27T20:05:57.943Z,4.67
2018-08-27T20:08:26.420Z,5.37
2018-08-27T20:10:54.953Z,5.37
2018-08-27T20:13:23.694Z,3.80
2018-08-27T20:15:52.193Z,4.53
2018-08-27T20:18:20.760Z,4.07
2018-08-27T20:20:49.284Z,8.73
2018-08-27T20:23:17.928Z,14.63
2018-08-27T20:25:46.563Z,23.97
2018-08-27T20:28:15.107Z,33.57
2018-08-27T20:30:43.623Z,51.67
2018-08-27T20:33:12.104Z,43.73
2018-08-27T20:35:40.577Z,30.07
2018-08-27T20:38:09.354Z,46.43
2018-08-27T20:40:37.859Z,26.20
2018-08-27T20:43:06.408Z,44.73
2018-08-27T20:45:34.906Z,15.97
2018-08-27T20:48:03.686Z,16.47
2018-08-27T20:50:33.931Z,8.93
2018-08-27T20:53:02.561Z,7.23
2018-08-27T20:55:31.045Z,8.70
2018-08-27T20:58:00.252Z,10.90
2018-08-27T21:00:28.760Z,7.07
2018-08-27T21:02:57.440Z,5.67
2018-08-27T21:05:25.903Z,6.07
2018-08-27T21:07:54.365Z,40.00
2018-08-27T21:10:23.991Z,38.73
2018-08-27T21:12:52.510Z,83.37
2018-08-27T21:15:20.975Z,83.83
2018-08-27T21:17:51.644Z,53.10
2018-08-27T21:20:21.069Z,45.47
2018-08-27T21:22:52.614Z,30.83
2018-08-27T21:25:21.693Z,17.77
2018-08-27T21:27:52.906Z,20.40
2018-08-27T21:30:22.314Z,12.37
2018-08-27T21:32:51.848Z,10.13
2018-08-27T21:35:20.468Z,11.60
2018-08-27T21:37:49.034Z,4.90
2018-08-27T21:40:17.687Z,4.57
2018-08-27T21:42:46.545Z,4.77
2018-08-27T21:45:15.200Z,5.17
2018-08-27T21:47:43.755Z,3.73
2018-08-27T21:50:12.472Z,13.50
2018-08-27T21:52:40.973Z,27.60
2018-08-27T21:55:09.540Z,36.17
2018-08-27T21:57:38.106Z,24.03
2018-08-27T22:00:07.109Z,15.47
2018-08-27T22:02:41.006Z,10.57
2018-08-27T22:13:24.832Z,3.40
2018-08-27T22:15:53.294Z,4.10
2018-08-27T22:18:21.880Z,4.37
2018-08-27T22:20:50.368Z,5.47
2018-08-27T22:23:18.844Z,3.87
2018-08-27T22:25:47.305Z,9.53
2018-08-27T22:28:15.788Z,24.63
2018-08-27T22:30:44.278Z,22.50
2018-08-27T22:33:12.740Z,16.63
2018-08-27T22:35:41.341Z,22.80
2018-08-27T22:38:09.838Z,11.83
2018-08-27T22:40:38.309Z,12.23
2018-08-27T22:43:06.803Z,21.57
2018-08-27T22:45:35.360Z,8.50
2018-08-27T22:48:03.827Z,6.50
2018-08-27T22:50:32.285Z,7.63
2018-08-27T22:53:01.313Z,8.47
2018-08-27T22:55:29.764Z,6.57
2018-08-27T22:57:58.248Z,6.63
2018-08-27T23:00:26.723Z,6.20
2018-08-27T23:03:01.376Z,6.27
2018-08-27T23:05:30.036Z,4.80
2018-08-27T23:07:58.592Z,5.57
2018-08-27T23:10:27.071Z,5.87
2018-08-27T23:12:55.555Z,4.73
2018-08-27T23:15:24.013Z,5.57
2018-08-27T23:17:52.648Z,6.23
2018-08-27T23:20:21.099Z,5.63
2018-08-27T23:22:49.556Z,7.67
2018-08-27T23:25:18.112Z,9.30
2018-08-27T23:27:46.628Z,6.00
2018-08-27T23:30:15.069Z,8.13
2018-08-27T23:32:43.651Z,12.07
2018-08-27T23:35:12.147Z,10.00
2018-08-27T23:37:40.646Z,13.87
2018-08-27T23:40:09.135Z,30.57
2018-08-27T23:42:37.824Z,37.93
2018-08-27T23:45:06.312Z,40.67
2018-08-27T23:47:35.016Z,23.73
2018-08-27T23:50:03.568Z,29.53
2018-08-27T23:52:32.144Z,25.33
2018-08-27T23:55:00.903Z,23.90
2018-08-27T23:57:29.367Z,16.00
2018-08-27T23:59:57.844Z,14.83
